Map

Track Data

SID SEASON NUMBER BASIN SUBBASIN NAME ISO_TIME NATURE LAT LON WMO_WIND WMO_PRES WMO_AGENCY TRACK_TYPE DIST2LAND LANDFALL IFLAG USA_AGENCY USA_ATCF_ID USA_LAT USA_LON USA_RECORD USA_STATUS USA_WIND USA_PRES USA_SSHS USA_R34_NE USA_R34_SE USA_R34_SW USA_R34_NW USA_R50_NE USA_R50_SE USA_R50_SW USA_R50_NW USA_R64_NE USA_R64_SE USA_R64_SW USA_R64_NW USA_POCI USA_ROCI USA_RMW USA_EYE TOKYO_LAT TOKYO_LON TOKYO_GRADE TOKYO_WIND TOKYO_PRES TOKYO_R50_DIR TOKYO_R50_LONG TOKYO_R50_SHORT TOKYO_R30_DIR TOKYO_R30_LONG TOKYO_R30_SHORT TOKYO_LAND CMA_LAT CMA_LON CMA_CAT CMA_WIND CMA_PRES HKO_LAT HKO_LON HKO_CAT HKO_WIND HKO_PRES NEWDELHI_LAT NEWDELHI_LON NEWDELHI_GRADE NEWDELHI_WIND NEWDELHI_PRES NEWDELHI_CI NEWDELHI_DP NEWDELHI_POCI REUNION_LAT REUNION_LON REUNION_TYPE REUNION_WIND REUNION_PRES REUNION_TNUM REUNION_CI REUNION_RMW REUNION_R34_NE REUNION_R34_SE REUNION_R34_SW REUNION_R34_NW REUNION_R50_NE REUNION_R50_SE REUNION_R50_SW REUNION_R50_NW REUNION_R64_NE REUNION_R64_SE REUNION_R64_SW REUNION_R64_NW BOM_LAT BOM_LON BOM_TYPE BOM_WIND BOM_PRES BOM_TNUM BOM_CI BOM_RMW BOM_R34_NE BOM_R34_SE BOM_R34_SW BOM_R34_NW BOM_R50_NE BOM_R50_SE BOM_R50_SW BOM_R50_NW BOM_R64_NE BOM_R64_SE BOM_R64_SW BOM_R64_NW BOM_ROCI BOM_POCI BOM_EYE BOM_POS_METHOD BOM_PRES_METHOD NADI_LAT NADI_LON NADI_CAT NADI_WIND NADI_PRES WELLINGTON_LAT WELLINGTON_LON WELLINGTON_WIND WELLINGTON_PRES DS824_LAT DS824_LON DS824_STAGE DS824_WIND DS824_PRES TD9636_LAT TD9636_LON TD9636_STAGE TD9636_WIND TD9636_PRES TD9635_LAT TD9635_LON TD9635_WIND TD9635_PRES TD9635_ROCI NEUMANN_LAT NEUMANN_LON NEUMANN_CLASS NEUMANN_WIND NEUMANN_PRES MLC_LAT MLC_LON MLC_CLASS MLC_WIND MLC_PRES USA_GUST BOM_GUST BOM_GUST_PER REUNION_GUST REUNION_GUST_PER USA_SEAHGT USA_SEARAD_NE USA_SEARAD_SE USA_SEARAD_SW USA_SEARAD_NW STORM_SPEED STORM_DIR
1964295N08148 1964 101 WP MM NOT_NAMED 1964-10-20 18:00:00 TS 8.40000 148.000 main 1178 1165 O________O____ jtwc_wp WP431964 8.40000 148.000 TD -1 8.40000 148.000 TC 10 263
1964295N08148 1964 101 WP MM NOT_NAMED 1964-10-20 21:00:00 TS 8.34258 147.512 main 1165 1165 P________P____ WP431964 8.34258 147.512 TD -1 8.34258 147.512 TC 10 263
1964295N08148 1964 101 WP MM NOT_NAMED 1964-10-21 00:00:00 TS 8.28572 147.000 main 1165 1165 O__O_____O____ jtwc_wp WP431964 8.30000 147.000 TD -1 8.20000 147.000 TD 25 1006 8.30000 147.000 TC 11 267
1964295N08148 1964 101 WP MM NOT_NAMED 1964-10-21 03:00:00 TS 8.27902 146.448 main 1165 1165 P__P_____P____ WP431964 8.28499 146.450 TD -1 8.25518 146.440 TD 25 1006 8.28499 146.450 TC 11 271
1964295N08148 1964 101 WP MM NOT_NAMED 1964-10-21 06:00:00 TS 8.30000 145.900 main 1167 1167 O__O_____O____ jtwc_wp WP431964 8.30000 145.900 TD -1 8.30000 145.900 TD 25 1006 8.30000 145.900 TC 10 273
1964295N08148 1964 101 WP MM NOT_NAMED 1964-10-21 09:00:00 TS 8.32991 145.392 main 1172 1172 P__P_____P____ WP431964 8.32741 145.392 TD -1 8.33491 145.392 TD 25 1006 8.32741 145.392 TC 10 276
1964295N08148 1964 101 WP MM NOT_NAMED 1964-10-21 12:00:00 TS 8.40000 144.900 main 1191 1191 O__O_____O____ jtwc_wp WP431964 8.40000 144.900 TD -1 8.40000 144.900 TD 25 1006 8.40000 144.900 TC 10 282
1964295N08148 1964 101 WP MM NOT_NAMED 1964-10-21 15:00:00 TS 8.54744 144.400 main 1212 1212 P__P_____P____ WP431964 8.54994 144.400 TD -1 8.54244 144.400 TD 25 1006 8.54994 144.400 TC 10 287
1964295N08148 1964 101 WP MM NOT_NAMED 1964-10-21 18:00:00 TS 8.70000 143.900 main 1246 1246 O__O_____O____ jtwc_wp WP431964 8.70000 143.900 TD -1 8.70000 143.900 TD 25 1006 8.70000 143.900 TC 10 283
1964295N08148 1964 101 WP MM NOT_NAMED 1964-10-21 21:00:00 TS 8.78410 143.400 main 1271 1271 P__P_____P____ WP431964 8.76493 143.400 TD -1 8.82243 143.400 TD 25 1006 8.76493 143.400 TC 10 278
1964295N08148 1964 101 WP MM NOT_NAMED 1964-10-22 00:00:00 TS 8.83333 142.900 main 1275 1265 O__O_____O____ jtwc_wp WP431964 8.80000 142.900 TD -1 8.90000 142.900 TD 25 1006 8.80000 142.900 TC 10 275
1964295N08148 1964 101 WP MM NOT_NAMED 1964-10-22 03:00:00 TS 8.87657 142.407 main 1265 1246 P__P_____P____ WP431964 8.85740 142.408 TD -1 8.91490 142.407 TD 25 1006 8.85740 142.408 TC 10 274
1964295N08148 1964 101 WP MM NOT_NAMED 1964-10-22 06:00:00 TS 8.90000 141.900 main 1246 1228 O__O_____O____ jtwc_wp WP431964 8.90000 141.900 TD -1 8.90000 141.900 TD 25 1006 8.90000 141.900 TC 10 272
1964295N08148 1964 101 WP MM NOT_NAMED 1964-10-22 09:00:00 TS 8.90498 141.350 main 1225 1211 P__P_____P____ WP431964 8.90748 141.350 TD -1 8.89998 141.350 TD 25 1006 8.90748 141.350 TC 11 270
1964295N08148 1964 101 WP MM NOT_NAMED 1964-10-22 12:00:00 TS 8.90000 140.800 main 1211 1191 O__O_____O____ jtwc_wp WP431964 8.90000 140.800 TD -1 8.90000 140.800 TD 25 1006 8.90000 140.800 TC 10 270
1964295N08148 1964 101 WP MM NOT_NAMED 1964-10-22 15:00:00 TS 8.89990 140.293 main 1191 1169 P__P_____P____ WP431964 8.89990 140.293 TD -1 8.89990 140.293 TD 25 1005 8.89990 140.293 TC 10 270
1964295N08148 1964 101 WP MM NOT_NAMED 1964-10-22 18:00:00 TS 8.90000 139.800 main 1169 1150 O__O_____O____ jtwc_wp WP431964 8.90000 139.800 TD -1 8.90000 139.800 TD 25 1005 8.90000 139.800 TC 10 270
1964295N08148 1964 101 WP MM NOT_NAMED 1964-10-22 21:00:00 TS 8.89993 139.300 main 1150 1132 P__P_____P____ WP431964 8.89993 139.300 TD -1 8.89993 139.300 TD 25 1004 8.89993 139.300 TC 10 270
1964295N08148 1964 101 WP MM NOT_NAMED 1964-10-23 00:00:00 TS 8.90000 138.800 main 1132 1116 O__O_____O____ jtwc_wp WP431964 8.90000 138.800 TD -1 8.90000 138.800 TD 25 1004 8.90000 138.800 TC 10 270
1964295N08148 1964 101 WP MM NOT_NAMED 1964-10-23 03:00:00 TS 8.89993 138.300 main 1116 1103 P__P_____P____ WP431964 8.89993 138.300 TD -1 8.89993 138.300 TD 25 1004 8.89993 138.300 TC 10 270
1964295N08148 1964 101 WP MM NOT_NAMED 1964-10-23 06:00:00 TS 8.90000 137.800 main 1103 1092 O__O_____O____ jtwc_wp WP431964 8.90000 137.800 TD -1 8.90000 137.800 TD 25 1004 8.90000 137.800 TC 10 270
1964295N08148 1964 101 WP MM NOT_NAMED 1964-10-23 09:00:00 TS 8.90243 137.300 main 1092 1083 P__P_____P____ WP431964 8.89993 137.300 TD -1 8.90743 137.300 TD 25 1004 8.89993 137.300 TC 10 270
1964295N08148 1964 101 WP MM NOT_NAMED 1964-10-23 12:00:00 TS 8.90000 136.800 main 1083 1076 O__O_____O____ jtwc_wp WP431964 8.90000 136.800 TD -1 8.90000 136.800 TD 25 1004 8.90000 136.800 TC 10 268
1964295N08148 1964 101 WP MM NOT_NAMED 1964-10-23 15:00:00 TS 8.87128 136.300 main 1076 1020 P__P_____P____ WP431964 8.90013 136.300 TD -1 8.84243 136.300 TD 25 1004 8.90013 136.300 TC 10 267
1964295N08148 1964 101 WP MM NOT_NAMED 1964-10-23 18:00:00 TS 8.84000 135.800 main 1020 966 O__O_____O____ jtwc_wp WP431964 8.90000 135.800 TD -1 8.80000 135.800 TD 25 1005 8.90000 135.800 TC 10 267
1964295N08148 1964 101 WP MM NOT_NAMED 1964-10-23 21:00:00 NR 8.82763 135.300 main 966 912 ___P__________ WP431964 TD -1 8.82763 135.300 TD 25 1005 TC 10 273
1964295N08148 1964 101 WP MM NOT_NAMED 1964-10-24 00:00:00 NR 8.90000 134.800 main 912 ___O__________ 8.90000 134.800 TD 25 1006 10 278

Digital Typhoon Data and Search

About IBTrACS Database

This database is a web-friendly format of International Best Track Archive for Climate Stewardship (IBTrACS), a global best track data archive curated by NOAA dating back to 1842.

Updated: 2021-11-26